createdAt,value
2019-04-11T00:01:51.495Z,3.90
2019-04-11T00:03:51.529Z,3.87
2019-04-11T00:05:53.130Z,4.22
2019-04-11T00:07:54.359Z,3.90
2019-04-11T00:09:56.697Z,4.22
2019-04-11T00:11:58.078Z,3.85
2019-04-11T00:13:59.888Z,3.60
2019-04-11T00:16:01.380Z,4.20
2019-04-11T00:18:02.885Z,4.08
2019-04-11T00:20:04.770Z,4.28
2019-04-11T00:22:06.161Z,3.83
2019-04-11T00:24:07.303Z,4.28
2019-04-11T00:26:08.825Z,3.80
2019-04-11T00:28:09.991Z,4.30
2019-04-11T00:30:12.262Z,3.20
2019-04-11T00:32:13.714Z,3.67
2019-04-11T00:34:15.142Z,4.12
2019-04-11T00:36:16.632Z,3.60
2019-04-11T00:38:18.137Z,3.95
2019-04-11T00:40:19.985Z,4.25
2019-04-11T00:42:21.301Z,3.67
2019-04-11T00:44:23.044Z,4.22
2019-04-11T00:46:24.599Z,4.00
2019-04-11T00:48:25.936Z,4.30
2019-04-11T00:50:29.040Z,3.50
2019-04-11T00:52:31.487Z,4.28
2019-04-11T00:56:34.560Z,3.67
2019-04-11T00:58:36.013Z,3.92
2019-04-11T01:02:42.256Z,4.03
2019-04-11T01:04:45.273Z,3.92
2019-04-11T01:06:46.788Z,3.83
2019-04-11T01:08:48.224Z,3.85
2019-04-11T01:10:49.745Z,4.28
2019-04-11T01:14:53.169Z,3.87
2019-04-11T01:16:55.350Z,4.00
2019-04-11T01:18:56.736Z,3.77
2019-04-11T01:20:58.141Z,3.87
2019-04-11T01:22:59.582Z,4.25
2019-04-11T01:25:00.932Z,4.50
2019-04-11T01:27:02.570Z,4.20
2019-04-11T01:29:04.028Z,4.50
2019-04-11T01:31:07.305Z,3.75
2019-04-11T01:33:08.758Z,4.37
2019-04-11T01:35:10.053Z,4.50
2019-04-11T01:37:11.547Z,4.35
2019-04-11T01:39:32.945Z,4.67
2019-04-11T01:41:34.422Z,4.00
2019-04-11T01:43:35.778Z,4.10
2019-04-11T01:45:37.868Z,4.17
2019-04-11T01:47:56.009Z,4.45
2019-04-11T01:49:57.284Z,4.33
2019-04-11T01:51:58.711Z,4.22
2019-04-11T01:53:59.859Z,4.40
2019-04-11T01:56:01.255Z,3.37
2019-04-11T01:58:02.795Z,4.62
2019-04-11T02:00:05.998Z,4.35
2019-04-11T02:02:19.153Z,4.08
2019-04-11T02:04:25.349Z,4.70
2019-04-11T02:06:26.747Z,3.90
2019-04-11T02:08:28.368Z,4.22
2019-04-11T02:10:29.662Z,4.30
2019-04-11T02:12:31.084Z,3.85
2019-04-11T02:14:33.362Z,4.40
2019-04-11T02:16:34.913Z,4.60
2019-04-11T02:18:37.297Z,4.40
2019-04-11T02:20:39.063Z,4.37
2019-04-11T02:25:06.052Z,4.67
2019-04-11T02:27:21.246Z,4.40
2019-04-11T02:29:23.485Z,3.95
2019-04-11T02:31:26.377Z,4.40
2019-04-11T02:33:28.377Z,3.98
2019-04-11T02:35:31.091Z,4.03
2019-04-11T02:37:34.358Z,4.45
2019-04-11T02:39:35.947Z,4.72
2019-04-11T02:41:39.582Z,4.62
2019-04-11T02:43:42.689Z,4.45
2019-04-11T02:45:57.008Z,4.75
2019-04-11T02:47:48.431Z,4.78
2019-04-11T02:49:51.659Z,4.62
2019-04-11T02:51:53.636Z,5.03
2019-04-11T02:53:57.326Z,5.05
2019-04-11T02:56:00.654Z,4.55
2019-04-11T02:58:03.959Z,5.00
2019-04-11T03:00:06.798Z,4.30
2019-04-11T03:02:11.058Z,4.67
2019-04-11T03:04:12.914Z,4.45
2019-04-11T03:06:15.244Z,5.12
2019-04-11T03:08:19.839Z,4.72
2019-04-11T03:10:21.019Z,4.55
2019-04-11T03:12:24.044Z,5.05
2019-04-11T03:14:25.498Z,4.65
2019-04-11T03:16:39.449Z,3.58
2019-04-11T03:18:45.852Z,4.78
2019-04-11T03:20:41.157Z,4.50
2019-04-11T03:22:35.977Z,4.87
2019-04-11T03:24:38.599Z,4.87
2019-04-11T03:26:41.312Z,4.83
2019-04-11T03:28:49.043Z,4.72
2019-04-11T03:31:04.256Z,5.12
2019-04-11T03:33:49.613Z,5.37
2019-04-11T03:35:45.501Z,4.60
2019-04-11T03:39:23.373Z,4.83
2019-04-11T03:41:22.286Z,5.28
2019-04-11T03:43:23.144Z,5.00
2019-04-11T03:45:33.412Z,5.17
2019-04-11T03:47:27.711Z,5.08
2019-04-11T03:49:27.894Z,5.42
2019-04-11T03:51:21.142Z,4.33
2019-04-11T03:53:27.248Z,5.05
2019-04-11T03:55:28.422Z,5.33
2019-04-11T03:57:31.821Z,5.53
2019-04-11T03:59:34.313Z,5.17
2019-04-11T04:01:38.043Z,6.08
2019-04-11T04:03:39.414Z,5.70
2019-04-11T04:05:41.995Z,5.28
2019-04-11T04:07:44.539Z,5.47
2019-04-11T04:09:46.293Z,5.10
2019-04-11T04:11:51.099Z,5.15
2019-04-11T04:14:10.567Z,5.65
2019-04-11T04:16:22.011Z,5.75
2019-04-11T04:18:25.340Z,5.25
2019-04-11T04:20:44.295Z,5.08
2019-04-11T04:22:50.030Z,5.08
2019-04-11T04:24:53.212Z,5.17
2019-04-11T04:26:57.536Z,5.83
2019-04-11T04:29:01.520Z,5.20
2019-04-11T04:31:04.589Z,5.50
2019-04-11T04:33:07.147Z,5.42
2019-04-11T04:35:11.541Z,5.55
2019-04-11T04:37:14.119Z,5.72
2019-04-11T04:39:17.393Z,5.17
2019-04-11T04:41:29.827Z,5.55
2019-04-11T04:43:24.954Z,5.22
2019-04-11T04:45:27.659Z,5.03
2019-04-11T04:47:37.381Z,5.22
2019-04-11T04:49:34.323Z,5.20
2019-04-11T04:51:37.244Z,4.90
2019-04-11T04:53:39.066Z,4.78
2019-04-11T04:57:42.981Z,5.20
2019-04-11T04:59:46.821Z,5.67
2019-04-11T05:01:48.400Z,5.70
2019-04-11T05:03:50.917Z,6.00
2019-04-11T05:05:52.995Z,5.67
2019-04-11T05:07:56.167Z,5.72
2019-04-11T05:09:58.663Z,4.97
2019-04-11T05:12:01.411Z,5.65
2019-04-11T05:14:04.898Z,6.15
2019-04-11T05:16:16.132Z,6.03
2019-04-11T05:18:11.458Z,5.53
2019-04-11T05:20:13.851Z,5.75
2019-04-11T05:22:15.500Z,5.78
2019-04-11T05:24:16.728Z,6.60
2019-04-11T05:26:19.288Z,5.45
2019-04-11T05:28:21.425Z,6.72
2019-04-11T05:30:23.149Z,6.10
2019-04-11T05:34:28.036Z,6.15
2019-04-11T05:36:30.415Z,6.35
2019-04-11T05:38:32.799Z,6.20
2019-04-11T05:40:34.651Z,5.40
2019-04-11T05:42:35.893Z,6.15
2019-04-11T05:44:38.191Z,6.20
2019-04-11T05:46:49.938Z,6.05
2019-04-11T05:48:45.508Z,6.50
2019-04-11T05:50:49.511Z,5.85
2019-04-11T05:52:50.384Z,6.03
2019-04-11T05:54:54.329Z,5.92
2019-04-11T05:56:59.145Z,6.22
2019-04-11T05:59:02.443Z,5.45
2019-04-11T06:03:43.833Z,5.58
2019-04-11T06:06:01.480Z,5.60
2019-04-11T06:08:05.470Z,6.28
2019-04-11T06:10:15.428Z,6.08
2019-04-11T06:12:31.771Z,5.87
2019-04-11T06:14:44.243Z,5.60
2019-04-11T06:16:52.002Z,4.87
2019-04-11T06:19:01.544Z,5.45
2019-04-11T06:21:14.073Z,5.90
2019-04-11T06:23:35.099Z,6.03
2019-04-11T06:25:55.914Z,5.67
2019-04-11T06:27:59.959Z,6.60
2019-04-11T06:30:03.430Z,5.62
2019-04-11T06:32:23.657Z,5.75
2019-04-11T06:34:27.084Z,6.33
2019-04-11T06:36:36.991Z,5.30
2019-04-11T06:38:56.812Z,5.72
2019-04-11T06:41:10.286Z,6.08
2019-04-11T06:43:30.080Z,6.35
2019-04-11T06:45:33.124Z,6.75
2019-04-11T06:47:36.772Z,6.62
2019-04-11T06:49:52.951Z,6.75
2019-04-11T06:51:56.787Z,5.87
2019-04-11T06:54:16.899Z,5.53
2019-04-11T06:56:23.212Z,6.55
2019-04-11T06:58:29.749Z,5.97
2019-04-11T07:00:31.572Z,7.05
2019-04-11T07:04:46.984Z,6.22
2019-04-11T07:06:50.282Z,7.03
2019-04-11T07:08:56.748Z,7.87
2019-04-11T07:11:02.986Z,6.28
2019-04-11T07:13:09.147Z,5.95
2019-04-11T07:15:14.329Z,6.55
2019-04-11T07:17:34.174Z,5.85
2019-04-11T07:19:46.245Z,6.62
2019-04-11T07:21:48.256Z,6.20
2019-04-11T07:24:08.094Z,6.33
2019-04-11T07:26:20.903Z,6.22
2019-04-11T07:28:25.239Z,6.83
2019-04-11T07:30:45.275Z,5.17
2019-04-11T07:32:47.721Z,6.20
2019-04-11T07:35:08.707Z,7.03
2019-04-11T07:37:28.032Z,5.80
2019-04-11T07:39:49.375Z,6.72
2019-04-11T07:42:00.178Z,6.55
2019-04-11T07:44:01.606Z,7.37
2019-04-11T07:46:19.544Z,4.87
2019-04-11T07:48:29.235Z,6.53
2019-04-11T07:50:31.192Z,6.67
2019-04-11T07:52:34.552Z,6.83
2019-04-11T07:54:36.980Z,6.90
2019-04-11T07:56:40.308Z,6.58
2019-04-11T07:58:43.358Z,6.40
2019-04-11T08:00:55.962Z,6.28
2019-04-11T08:03:15.634Z,5.53
2019-04-11T08:05:36.556Z,6.37
2019-04-11T08:07:46.877Z,6.63
2019-04-11T08:09:50.630Z,6.67
2019-04-11T08:11:56.885Z,6.42
2019-04-11T08:14:18.378Z,6.67
2019-04-11T08:16:28.835Z,7.33
2019-04-11T08:18:32.799Z,6.28
2019-04-11T08:20:53.283Z,7.40
2019-04-11T08:22:57.165Z,6.67
2019-04-11T08:25:00.860Z,6.65
2019-04-11T08:27:07.228Z,6.85
2019-04-11T08:29:13.666Z,7.28
2019-04-11T08:31:20.125Z,6.22
2019-04-11T08:33:23.165Z,6.95
2019-04-11T08:35:38.111Z,6.58
2019-04-11T08:37:41.452Z,7.17
2019-04-11T08:39:42.601Z,6.67
2019-04-11T08:41:49.563Z,4.87
2019-04-11T08:43:51.262Z,6.65
2019-04-11T08:46:07.018Z,6.80
2019-04-11T08:48:10.846Z,7.90
2019-04-11T08:50:14.505Z,7.10
2019-04-11T08:52:18.042Z,7.10
2019-04-11T08:54:27.119Z,7.30
2019-04-11T08:56:29.525Z,6.80
2019-04-11T08:58:47.659Z,7.08
2019-04-11T09:00:52.789Z,7.20
2019-04-11T09:02:57.540Z,6.75
2019-04-11T09:05:13.664Z,7.00
2019-04-11T09:07:14.357Z,7.62
2019-04-11T09:09:29.439Z,6.85
2019-04-11T09:11:33.079Z,7.85
2019-04-11T09:13:49.395Z,6.72
2019-04-11T09:16:09.729Z,7.25
2019-04-11T09:18:13.680Z,7.55
2019-04-11T09:20:19.210Z,7.47
2019-04-11T09:22:31.689Z,7.65
2019-04-11T09:24:40.985Z,7.10
2019-04-11T09:27:02.354Z,7.62
2019-04-11T09:29:04.014Z,8.10
2019-04-11T09:31:19.535Z,7.35
2019-04-11T09:33:39.705Z,7.50
2019-04-11T09:35:59.779Z,7.03
2019-04-11T09:38:04.270Z,7.62
2019-04-11T09:40:11.849Z,7.80
2019-04-11T09:42:20.244Z,7.40
2019-04-11T09:44:39.538Z,7.20
2019-04-11T09:46:59.179Z,6.78
2019-04-11T09:49:06.571Z,7.65
2019-04-11T09:51:21.919Z,7.10
2019-04-11T09:53:23.142Z,6.53
2019-04-11T09:55:41.706Z,7.22
2019-04-11T09:57:46.078Z,7.00
2019-04-11T10:00:07.930Z,7.70
2019-04-11T10:02:27.558Z,7.78
2019-04-11T10:04:31.865Z,7.22
2019-04-11T10:06:38.849Z,7.42
2019-04-11T10:08:41.801Z,6.42
2019-04-11T10:11:01.801Z,8.25
2019-04-11T10:13:18.479Z,7.08
2019-04-11T10:15:23.150Z,6.95
2019-04-11T10:17:29.696Z,6.87
2019-04-11T10:19:36.050Z,7.08
2019-04-11T10:21:43.598Z,8.05
2019-04-11T10:23:49.589Z,6.28
2019-04-11T10:25:51.827Z,6.37
2019-04-11T10:28:04.886Z,7.65
2019-04-11T10:30:25.810Z,6.40
2019-04-11T10:32:32.935Z,6.33
2019-04-11T10:34:41.908Z,6.20
2019-04-11T10:36:45.365Z,6.90
2019-04-11T10:38:48.886Z,7.33
2019-04-11T10:40:58.732Z,7.55
2019-04-11T10:43:01.015Z,6.80
2019-04-11T10:45:16.484Z,6.92
2019-04-11T10:47:20.638Z,7.15
2019-04-11T10:49:24.118Z,7.33
2019-04-11T10:51:45.654Z,7.08
2019-04-11T10:53:49.231Z,8.00
2019-04-11T10:56:02.196Z,7.12
2019-04-11T10:58:06.665Z,6.65
2019-04-11T11:00:14.248Z,6.42
2019-04-11T11:02:21.026Z,7.28
2019-04-11T11:04:25.477Z,7.08
2019-04-11T11:06:35.758Z,7.22
2019-04-11T11:08:41.880Z,6.72
2019-04-11T11:10:43.834Z,6.10
2019-04-11T11:12:57.207Z,6.70
2019-04-11T11:15:09.712Z,6.55
2019-04-11T11:17:15.719Z,7.30
2019-04-11T11:19:40.927Z,6.53
2019-04-11T11:21:25.979Z,5.37
2019-04-11T11:23:44.973Z,6.62
2019-04-11T11:25:51.345Z,6.50
2019-04-11T11:27:52.367Z,6.35
2019-04-11T11:30:06.080Z,6.12
2019-04-11T11:32:09.835Z,6.42
2019-04-11T11:34:17.305Z,6.35
2019-04-11T11:36:37.588Z,6.67
2019-04-11T11:38:41.818Z,6.67
2019-04-11T11:41:01.906Z,6.08
2019-04-11T11:43:14.802Z,6.40
2019-04-11T11:45:19.437Z,6.47
2019-04-11T11:47:40.377Z,5.97
2019-04-11T11:49:51.785Z,6.60
2019-04-11T11:52:00.441Z,6.45
2019-04-11T11:54:05.195Z,6.53
2019-04-11T11:56:09.344Z,6.40
2019-04-11T11:58:19.810Z,6.65
2019-04-11T12:00:23.491Z,6.83
2019-04-11T12:02:30.382Z,6.70
2019-04-11T12:04:35.924Z,6.60
2019-04-11T12:06:38.815Z,6.75
2019-04-11T12:09:00.238Z,6.78
2019-04-11T12:11:03.987Z,6.20
2019-04-11T12:13:24.085Z,6.80
2019-04-11T12:15:44.108Z,6.83
2019-04-11T12:17:59.644Z,6.80
2019-04-11T12:20:09.758Z,7.33
2019-04-11T12:22:06.227Z,7.50
2019-04-11T12:24:26.191Z,6.75
2019-04-11T12:26:30.445Z,6.50
2019-04-11T12:28:49.909Z,6.95
2019-04-11T12:30:59.664Z,6.53
2019-04-11T12:33:15.192Z,6.28
2019-04-11T12:35:25.759Z,6.20
2019-04-11T12:37:29.449Z,6.30
2019-04-11T12:39:49.601Z,6.62
2019-04-11T12:41:52.900Z,7.05
2019-04-11T12:43:55.957Z,5.83
2019-04-11T12:46:10.841Z,6.30
2019-04-11T12:48:12.644Z,6.08
2019-04-11T12:50:22.467Z,6.10
2019-04-11T12:52:31.057Z,6.12
2019-04-11T12:54:34.137Z,6.37
2019-04-11T12:56:40.718Z,6.37
2019-04-11T12:58:44.005Z,5.47
2019-04-11T13:01:03.645Z,6.90
2019-04-11T13:03:09.465Z,6.20
2019-04-11T13:05:12.523Z,7.03
2019-04-11T13:07:15.556Z,6.12
2019-04-11T13:09:27.298Z,6.47
2019-04-11T13:11:30.422Z,5.97
2019-04-11T13:13:42.281Z,6.15
2019-04-11T13:18:05.210Z,5.62
2019-04-11T13:20:08.663Z,5.95
2019-04-11T13:22:20.571Z,5.95
2019-04-11T13:24:36.065Z,5.55
2019-04-11T13:26:39.192Z,5.80
2019-04-11T13:28:42.576Z,5.60
2019-04-11T13:30:48.544Z,5.85
2019-04-11T13:32:51.992Z,6.50
2019-04-11T13:34:57.824Z,6.12
2019-04-11T13:37:10.376Z,7.55
2019-04-11T13:39:12.414Z,5.83
2019-04-11T13:41:32.102Z,6.08
2019-04-11T13:43:35.255Z,5.70
2019-04-11T13:45:55.181Z,5.40
2019-04-11T13:48:13.394Z,4.92
2019-04-11T13:50:16.875Z,4.60
2019-04-11T13:52:35.743Z,5.50
2019-04-11T13:54:51.318Z,4.87
2019-04-11T13:56:54.706Z,7.22
2019-04-11T13:59:13.069Z,5.35
2019-04-11T14:01:14.570Z,5.30
2019-04-11T14:03:17.876Z,4.92
2019-04-11T14:05:20.129Z,5.25
2019-04-11T14:07:26.201Z,5.45
2019-04-11T14:09:30.853Z,5.00
2019-04-11T14:11:33.767Z,4.83
2019-04-11T14:13:40.301Z,4.87
2019-04-11T14:15:58.745Z,5.08
2019-04-11T14:18:18.415Z,4.92
2019-04-11T14:20:29.808Z,4.78
2019-04-11T14:22:32.861Z,4.60
2019-04-11T14:24:45.273Z,5.12
2019-04-11T14:26:48.969Z,4.62
2019-04-11T14:28:51.411Z,4.67
2019-04-11T14:30:57.518Z,5.12
2019-04-11T14:33:00.892Z,4.40
2019-04-11T14:35:07.201Z,4.33
2019-04-11T14:37:16.479Z,4.28
2019-04-11T14:39:20.032Z,4.92
2019-04-11T14:41:41.689Z,3.92
2019-04-11T14:43:46.766Z,3.85
2019-04-11T14:45:52.892Z,4.40
2019-04-11T14:48:12.546Z,4.25
2019-04-11T14:50:13.794Z,3.72
2019-04-11T14:52:33.754Z,4.22
2019-04-11T14:54:36.901Z,4.22
2019-04-11T14:56:42.470Z,3.92
2019-04-11T14:59:02.136Z,4.17
2019-04-11T15:01:05.217Z,4.10
2019-04-11T15:03:14.321Z,4.53
2019-04-11T15:05:33.914Z,4.97
2019-04-11T15:07:37.301Z,4.83
2019-04-11T15:09:40.449Z,8.00
2019-04-11T15:11:47.335Z,5.80
2019-04-11T15:13:50.980Z,8.80
2019-04-11T15:16:11.001Z,4.95
2019-04-11T15:18:13.790Z,4.10
2019-04-11T15:20:22.909Z,7.08
2019-04-11T15:22:25.945Z,3.98
2019-04-11T15:24:27.090Z,4.03
2019-04-11T15:26:30.426Z,4.30
2019-04-11T15:28:48.656Z,4.20
2019-04-11T15:30:51.904Z,3.72
2019-04-11T15:33:12.098Z,4.10
2019-04-11T15:35:13.289Z,4.70
2019-04-11T15:37:16.333Z,4.70
2019-04-11T15:39:44.338Z,4.58
2019-04-11T15:41:41.190Z,4.55
2019-04-11T15:43:59.441Z,4.40
2019-04-11T15:46:02.572Z,4.35
2019-04-11T15:48:08.489Z,4.45
2019-04-11T15:50:18.186Z,4.47
2019-04-11T15:52:19.493Z,3.98
2019-04-11T15:54:25.346Z,3.90
2019-04-11T15:56:43.825Z,4.55
2019-04-11T15:58:47.225Z,4.97
2019-04-11T16:00:50.281Z,7.70
2019-04-11T16:02:53.671Z,10.05
2019-04-11T16:04:56.748Z,13.32
2019-04-11T16:07:12.381Z,10.75
2019-04-11T16:09:15.023Z,8.60
2019-04-11T16:11:26.681Z,7.20
2019-04-11T16:13:34.542Z,8.83
2019-04-11T16:15:37.592Z,7.42
2019-04-11T16:17:53.176Z,6.97
2019-04-11T16:19:55.825Z,8.55
2019-04-11T16:22:01.625Z,6.47
2019-04-11T16:24:04.770Z,5.25
2019-04-11T16:26:10.946Z,4.00
2019-04-11T16:28:19.577Z,3.77
2019-04-11T16:30:22.070Z,3.45
2019-04-11T16:32:24.370Z,4.00
2019-04-11T16:34:47.621Z,3.55
2019-04-11T16:36:41.321Z,3.55
2019-04-11T16:38:49.777Z,3.85
2019-04-11T16:40:55.013Z,4.65
2019-04-11T16:42:59.195Z,4.50
2019-04-11T16:45:19.388Z,3.75
2019-04-11T16:47:39.209Z,3.98
2019-04-11T16:49:42.254Z,4.65
2019-04-11T16:51:43.869Z,5.58
2019-04-11T16:53:45.018Z,4.83
2019-04-11T16:55:46.302Z,4.30
2019-04-11T16:57:47.718Z,3.90
2019-04-11T16:59:49.768Z,4.60
2019-04-11T17:01:53.725Z,7.53
2019-04-11T17:03:55.643Z,8.58
2019-04-11T17:06:02.097Z,5.90
2019-04-11T17:08:10.964Z,5.60
2019-04-11T17:10:14.253Z,7.75
2019-04-11T17:12:15.436Z,4.75
2019-04-11T17:14:27.672Z,4.08
2019-04-11T17:16:19.713Z,4.65
2019-04-11T17:18:20.973Z,8.28
2019-04-11T17:20:22.301Z,5.90
2019-04-11T17:22:23.851Z,4.22
2019-04-11T17:24:25.154Z,5.33
2019-04-11T17:26:26.313Z,3.95
2019-04-11T17:28:30.473Z,3.85
2019-04-11T17:30:31.720Z,4.67
2019-04-11T17:32:33.081Z,4.28
2019-04-11T17:34:34.209Z,4.03
2019-04-11T17:36:35.371Z,4.22
2019-04-11T17:38:37.167Z,4.15
2019-04-11T17:40:39.601Z,4.12
2019-04-11T17:42:43.852Z,3.85
2019-04-11T17:44:44.645Z,4.10
2019-04-11T17:46:45.802Z,4.60
2019-04-11T17:48:47.005Z,11.00
2019-04-11T17:50:48.139Z,8.95
2019-04-11T17:52:49.978Z,14.47
2019-04-11T17:54:51.931Z,5.62
2019-04-11T17:56:54.891Z,7.00
2019-04-11T17:58:58.096Z,4.40
2019-04-11T18:01:05.078Z,4.15
2019-04-11T18:03:05.002Z,4.15
2019-04-11T18:05:06.399Z,5.35
2019-04-11T18:07:07.798Z,4.25
2019-04-11T18:09:10.857Z,4.72
2019-04-11T18:11:11.993Z,4.72
2019-04-11T18:13:13.133Z,4.45
2019-04-11T18:15:14.269Z,4.45
2019-04-11T18:17:16.583Z,3.10
2019-04-11T18:19:17.912Z,3.87
2019-04-11T18:21:19.058Z,4.53
2019-04-11T18:23:20.344Z,6.90
2019-04-11T18:25:21.647Z,6.28
2019-04-11T18:27:22.801Z,4.78
2019-04-11T18:29:24.025Z,3.08
2019-04-11T18:31:25.662Z,4.10
2019-04-11T18:33:26.942Z,4.25
2019-04-11T18:35:31.735Z,4.08
2019-04-11T18:37:32.182Z,4.45
2019-04-11T18:39:36.032Z,3.87
2019-04-11T18:41:37.221Z,4.80
2019-04-11T18:43:38.375Z,3.55
2019-04-11T18:45:39.575Z,4.55
2019-04-11T18:47:40.813Z,4.25
2019-04-11T18:49:42.216Z,4.08
2019-04-11T18:51:43.361Z,3.95
2019-04-11T18:53:44.938Z,4.28
2019-04-11T18:57:47.967Z,3.65
2019-04-11T19:01:50.726Z,4.12
2019-04-11T19:03:53.387Z,3.92
2019-04-11T19:05:54.838Z,3.95
2019-04-11T19:08:00.592Z,4.00
2019-04-11T19:10:04.209Z,3.87
2019-04-11T19:12:07.673Z,3.35
2019-04-11T19:14:09.044Z,6.62
2019-04-11T19:16:10.555Z,7.10
2019-04-11T19:18:16.034Z,2.95
2019-04-11T19:20:18.693Z,2.92
2019-04-11T19:22:36.353Z,3.47
2019-04-11T19:24:34.839Z,2.42
2019-04-11T19:26:26.930Z,3.17
2019-04-11T19:28:28.136Z,3.92
2019-04-11T19:30:29.670Z,3.25
2019-04-11T19:32:31.221Z,3.12
2019-04-11T19:36:33.486Z,3.00
2019-04-11T19:38:36.533Z,3.80
2019-04-11T19:40:37.669Z,3.35
2019-04-11T19:42:39.165Z,3.42
2019-04-11T19:44:40.318Z,3.27
2019-04-11T19:46:41.478Z,4.62
2019-04-11T19:48:42.625Z,3.70
2019-04-11T19:50:44.142Z,7.92
2019-04-11T19:52:46.033Z,5.92
2019-04-11T19:54:47.433Z,4.00
2019-04-11T19:56:59.025Z,3.27
2019-04-11T19:59:00.261Z,2.85
2019-04-11T20:01:01.521Z,2.98
2019-04-11T20:03:03.058Z,2.75
2019-04-11T20:05:04.504Z,2.60
2019-04-11T20:07:05.658Z,3.62
2019-04-11T20:09:07.306Z,5.90
2019-04-11T20:13:09.709Z,3.40
2019-04-11T20:15:11.123Z,3.00
2019-04-11T20:17:12.682Z,3.00
2019-04-11T20:19:14.077Z,2.87
2019-04-11T20:21:15.300Z,2.85
2019-04-11T20:23:16.929Z,2.92
2019-04-11T20:25:18.254Z,3.27
2019-04-11T20:27:20.284Z,3.02
2019-04-11T20:29:22.193Z,3.20
2019-04-11T20:31:23.379Z,3.05
2019-04-11T20:33:27.243Z,2.83
2019-04-11T20:35:29.021Z,2.58
2019-04-11T20:37:39.140Z,3.37
2019-04-11T20:39:33.825Z,3.20
2019-04-11T20:41:35.065Z,2.80
2019-04-11T20:43:36.202Z,2.72
2019-04-11T20:45:39.255Z,2.95
2019-04-11T20:47:40.393Z,2.85
2019-04-11T20:49:46.469Z,2.20
2019-04-11T20:51:47.921Z,2.85
2019-04-11T20:53:49.164Z,3.02
2019-04-11T20:55:50.303Z,3.22
2019-04-11T20:57:51.443Z,3.15
2019-04-11T20:59:52.838Z,2.62
2019-04-11T21:01:56.467Z,3.17
2019-04-11T21:04:00.106Z,3.05
2019-04-11T21:06:01.726Z,2.50
2019-04-11T21:08:04.032Z,3.00
2019-04-11T21:12:07.433Z,2.50
2019-04-11T21:14:09.429Z,2.47
2019-04-11T21:16:10.916Z,2.60
2019-04-11T21:18:12.128Z,3.12
2019-04-11T21:20:13.290Z,2.35
2019-04-11T21:22:14.518Z,2.85
2019-04-11T21:24:15.670Z,2.52
2019-04-11T21:26:16.832Z,1.75
2019-04-11T21:28:18.145Z,2.70
2019-04-11T21:30:19.403Z,3.25
2019-04-11T21:32:20.553Z,2.37
2019-04-11T21:34:22.400Z,2.50
2019-04-11T21:36:23.529Z,2.22
2019-04-11T21:38:24.661Z,2.00
2019-04-11T21:40:25.817Z,2.40
2019-04-11T21:42:26.959Z,2.60
2019-04-11T21:44:28.213Z,2.37
2019-04-11T21:46:31.491Z,2.37
2019-04-11T21:48:35.784Z,2.60
2019-04-11T21:50:40.361Z,2.30
2019-04-11T21:52:43.424Z,2.60
2019-04-11T21:54:45.101Z,2.30
2019-04-11T21:56:52.069Z,2.30
2019-04-11T21:58:53.490Z,2.25
2019-04-11T22:00:58.980Z,2.22
2019-04-11T22:03:00.371Z,2.35
2019-04-11T22:05:02.379Z,2.45
2019-04-11T22:07:04.234Z,2.30
2019-04-11T22:09:06.637Z,2.27
2019-04-11T22:11:10.165Z,2.58
2019-04-11T22:13:11.330Z,2.50
2019-04-11T22:15:12.873Z,2.00
2019-04-11T22:19:17.299Z,2.40
2019-04-11T22:21:19.064Z,2.22
2019-04-11T22:23:20.470Z,2.47
2019-04-11T22:25:22.359Z,2.25
2019-04-11T22:27:23.753Z,2.42
2019-04-11T22:29:25.628Z,2.30
2019-04-11T22:31:26.945Z,2.33
2019-04-11T22:33:38.746Z,1.57
2019-04-11T22:35:39.898Z,2.55
2019-04-11T22:37:41.029Z,2.55
2019-04-11T22:39:42.490Z,2.47
2019-04-11T22:41:43.933Z,2.45
2019-04-11T22:43:45.145Z,2.17
2019-04-11T22:45:46.294Z,2.40
2019-04-11T22:47:47.429Z,2.20
2019-04-11T22:49:48.569Z,1.37
2019-04-11T22:51:49.733Z,1.60
2019-04-11T22:53:59.939Z,2.20
2019-04-11T22:55:54.466Z,2.25
2019-04-11T22:57:55.918Z,2.52
2019-04-11T22:59:57.058Z,1.98
2019-04-11T23:02:00.361Z,1.60
2019-04-11T23:04:01.895Z,2.37
2019-04-11T23:06:03.213Z,2.30
2019-04-11T23:08:04.706Z,2.65
2019-04-11T23:10:05.963Z,1.95
2019-04-11T23:12:07.478Z,2.20
2019-04-11T23:14:08.628Z,2.00
2019-04-11T23:16:12.047Z,1.60
2019-04-11T23:18:14.011Z,2.12
2019-04-11T23:20:16.041Z,2.25
2019-04-11T23:22:17.192Z,2.10
2019-04-11T23:24:18.618Z,2.20
2019-04-11T23:26:20.067Z,2.37
2019-04-11T23:28:21.599Z,2.67
2019-04-11T23:30:22.994Z,2.20
2019-04-11T23:32:24.504Z,2.37
2019-04-11T23:34:25.988Z,2.30
2019-04-11T23:36:27.118Z,2.12
2019-04-11T23:38:28.357Z,2.47
2019-04-11T23:40:29.500Z,2.17
2019-04-11T23:42:30.657Z,2.42
2019-04-11T23:44:32.164Z,1.70
2019-04-11T23:46:33.393Z,2.72
2019-04-11T23:48:34.532Z,2.20
2019-04-11T23:50:35.679Z,2.47
2019-04-11T23:52:36.846Z,2.58
2019-04-11T23:54:37.976Z,2.30
2019-04-11T23:56:39.537Z,2.33
2019-04-11T23:58:40.986Z,2.33
